Regen van: 18-08-2019 02:59 tot: 14:59 waarschuwing voor: Regen niveau: Geel info button

Vossem Meer informatie Vossem


Tervuren markt Meer informatie Tervuren markt


Tervuren park Meer informatie Tervuren park


waarschuwing voor Regen Meer informatie rain snow radar


Bezoek onze andere website:

Meteotemplate

Home Weather Station

Saratoga


Lokaal brand risico:
CBI


Regionaal brand risico: Meer informatie



Select another period ( hide this area )

Eenheden Periode Custom range Directly to
Metrisch Engels Beide
Dagelijkse Wekelijkse Maandelijkse Jaarlijkse
use both date-selectors for a custom range
previous Dag
With this date

WeatherUnderground graphs for this period ( click here )


Dagelijkse Samenvatting Zondag 18 augustus 2019
Tijd Temp. ( °C ) Dew pt. ( °C ) Wind ( km/h ) van Vlaag ( km/h ) Luchtdruk ( hPa ) Humid.( % ) Rainrate ( cm )
Hoog16,8 15,8 1,8 Westen ( 5/5 ) 3,2 1007,7 94 0,80
Gemiddeld15,8 14,8 0,1 Kalm #59/62 0,5 1006,9 94 1,60
Laag15,3 14,3 -   0,0 1005,6 93 -
Dagelijkse Tabular details for Zondag 18 augustus 2019
Tijd Temp. ( °C ) Dew pt. ( °C ) Wind ( km/h ) van Vlaag ( km/h ) Luchtdruk ( hPa ) Humid.( % ) Rainrate ( cm )
00:01 16,8 15,7   Kalm   1007,0 93 0,80
00:05 16,8 15,8   Kalm   1007,3 94 0,80
00:11 16,8 15,8   Kalm   1007,3 94 0,80
00:15 16,8 15,8   Kalm 1,6 1007,3 94 0,80
00:21 16,7 15,7   Kalm   1007,3 94 -
00:25 16,7 15,7   Kalm 3,2 1007,3 94 -
00:31 16,7 15,7   Kalm 1,6 1007,3 94 -
00:35 16,6 15,6   Kalm   1007,7 94 -
00:41 16,6 15,5   Kalm 3,2 1007,3 93 -
00:45 16,5 15,4 1,8 Westen 3,2 1007,3 93 -
00:51 16,4 15,3   Kalm 1,6 1007,3 93 -
00:55 16,4 15,3   Kalm 1,6 1007,3 93 -
01:01 16,3 15,2   Kalm 1,6 1007,3 93 -
01:05 16,3 15,2 1,8 Westen 3,2 1007,3 93 -
01:11 16,2 15,1   Kalm   1007,3 93 -
01:15 16,2 15,1   Kalm 1,6 1007,3 93 -
01:21 16,1 15,0   Kalm   1007,3 93 0,80
01:25 16,1 15,0   Kalm   1007,3 93 0,80
01:31 16,0 14,9   Kalm 1,6 1007,3 93 0,80
01:35 15,9 14,8   Kalm   1007,3 93 -
01:41 15,9 14,8   Kalm 1,6 1007,3 93 -
01:45 15,9 14,8   Kalm   1007,3 93 -
01:51 15,9 14,8 1,8 Westen 1,6 1007,0 93 -
01:55 15,8 14,7   Kalm   1007,0 93 -
02:01 15,8 14,7   Kalm   1007,0 93 0,80
02:05 15,7 14,6   Kalm   1007,0 93 0,80
02:11 15,7 14,6   Kalm   1007,0 93 0,80
02:15 15,7 14,6   Kalm   1007,3 93 0,80
02:21 15,7 14,6   Kalm   1007,0 93 -
02:25 15,7 14,7   Kalm   1007,0 94 -
02:31 15,6 14,6   Kalm   1007,0 94 -
02:35 15,6 14,6   Kalm 1,6 1007,0 94 -
02:41 15,6 14,6   Kalm   1007,3 94 -
02:45 15,6 14,6   Kalm   1007,3 94 -
02:51 15,6 14,6   Kalm   1006,7 94 -
02:55 15,6 14,6   Kalm   1007,0 94 -
03:01 15,6 14,6   Kalm   1007,0 94 -
03:05 15,6 14,6   Kalm   1006,7 94 -
03:11 15,6 14,6   Kalm   1006,7 94 -
03:15 15,6 14,6   Kalm   1006,7 94 -
03:21 15,6 14,6   Kalm   1006,7 94 -
03:25 15,6 14,6   Kalm   1006,7 94 -
03:31 15,5 14,5   Kalm   1006,7 94 -
03:35 15,5 14,5   Kalm   1006,7 94 -
03:41 15,5 14,5   Kalm   1006,7 94 -
03:45 15,4 14,4   Kalm   1006,7 94 -
03:51 15,4 14,4   Kalm   1006,7 94 -
03:55 15,4 14,4   Kalm   1006,7 94 0,80
04:01 15,4 14,4   Kalm   1006,7 94 0,80
04:05 15,4 14,4   Kalm   1006,3 94 0,80
04:11 15,4 14,4   Kalm   1006,3 94 0,80
04:15 15,4 14,4   Kalm   1006,3 94 -
04:21 15,4 14,4   Kalm   1006,3 94 -
04:25 15,4 14,4   Kalm   1006,3 94 -
04:31 15,4 14,4   Kalm   1006,3 94 -
04:35 15,4 14,4   Kalm   1006,3 94 -
04:41 15,4 14,4   Kalm   1006,3 94 -
04:45 15,4 14,4   Kalm   1006,3 94 -
04:51 15,4 14,4   Kalm   1006,0 94 -
04:55 15,3 14,3   Kalm   1006,0 94 -
05:01 15,3 14,3   Kalm   1005,6 94 -
05:05 15,3 14,3   Kalm   1006,0 94 -
Dagelijkse Samenvatting Zondag 18 augustus 2019
Tijd Temp. ( °C ) Dew pt. ( °C ) Wind ( km/h ) van Vlaag ( km/h ) Luchtdruk ( hPa ) Humid.( % ) Rainrate ( cm )
Hoog16,8 15,8 1,8 Westen ( 5/5 ) 3,2 1007,7 94 0,80
Gemiddeld15,8 14,8 0,1 Kalm #59/62 0,5 1006,9 94 1,60
Laag15,3 14,3 -   0,0 1005,6 93 -
Dagelijkse Tabular details for Zondag 18 augustus 2019
Tijd Temp. ( °C ) Dew pt. ( °C ) Wind ( km/h ) van Vlaag ( km/h ) Luchtdruk ( hPa ) Humid.( % ) Rainrate ( cm )
00:01 16,8 15,7   Kalm   1007,0 93 0,80
00:05 16,8 15,8   Kalm   1007,3 94 0,80
00:11 16,8 15,8   Kalm   1007,3 94 0,80
00:15 16,8 15,8   Kalm 1,6 1007,3 94 0,80
00:21 16,7 15,7   Kalm   1007,3 94 -
00:25 16,7 15,7   Kalm 3,2 1007,3 94 -
00:31 16,7 15,7   Kalm 1,6 1007,3 94 -
00:35 16,6 15,6   Kalm   1007,7 94 -
00:41 16,6 15,5   Kalm 3,2 1007,3 93 -
00:45 16,5 15,4 1,8 Westen 3,2 1007,3 93 -
00:51 16,4 15,3   Kalm 1,6 1007,3 93 -
00:55 16,4 15,3   Kalm 1,6 1007,3 93 -
01:01 16,3 15,2   Kalm 1,6 1007,3 93 -
01:05 16,3 15,2 1,8 Westen 3,2 1007,3 93 -
01:11 16,2 15,1   Kalm   1007,3 93 -
01:15 16,2 15,1   Kalm 1,6 1007,3 93 -
01:21 16,1 15,0   Kalm   1007,3 93 0,80
01:25 16,1 15,0   Kalm   1007,3 93 0,80
01:31 16,0 14,9   Kalm 1,6 1007,3 93 0,80
01:35 15,9 14,8   Kalm   1007,3 93 -
01:41 15,9 14,8   Kalm 1,6 1007,3 93 -
01:45 15,9 14,8   Kalm   1007,3 93 -
01:51 15,9 14,8 1,8 Westen 1,6 1007,0 93 -
01:55 15,8 14,7   Kalm   1007,0 93 -
02:01 15,8 14,7   Kalm   1007,0 93 0,80
02:05 15,7 14,6   Kalm   1007,0 93 0,80
02:11 15,7 14,6   Kalm   1007,0 93 0,80
02:15 15,7 14,6   Kalm   1007,3 93 0,80
02:21 15,7 14,6   Kalm   1007,0 93 -
02:25 15,7 14,7   Kalm   1007,0 94 -
02:31 15,6 14,6   Kalm   1007,0 94 -
02:35 15,6 14,6   Kalm 1,6 1007,0 94 -
02:41 15,6 14,6   Kalm   1007,3 94 -
02:45 15,6 14,6   Kalm   1007,3 94 -
02:51 15,6 14,6   Kalm   1006,7 94 -
02:55 15,6 14,6   Kalm   1007,0 94 -
03:01 15,6 14,6   Kalm   1007,0 94 -
03:05 15,6 14,6   Kalm   1006,7 94 -
03:11 15,6 14,6   Kalm   1006,7 94 -
03:15 15,6 14,6   Kalm   1006,7 94 -
03:21 15,6 14,6   Kalm   1006,7 94 -
03:25 15,6 14,6   Kalm   1006,7 94 -
03:31 15,5 14,5   Kalm   1006,7 94 -
03:35 15,5 14,5   Kalm   1006,7 94 -
03:41 15,5 14,5   Kalm   1006,7 94 -
03:45 15,4 14,4   Kalm   1006,7 94 -
03:51 15,4 14,4   Kalm   1006,7 94 -
03:55 15,4 14,4   Kalm   1006,7 94 0,80
04:01 15,4 14,4   Kalm   1006,7 94 0,80
04:05 15,4 14,4   Kalm   1006,3 94 0,80
04:11 15,4 14,4   Kalm   1006,3 94 0,80
04:15 15,4 14,4   Kalm   1006,3 94 -
04:21 15,4 14,4   Kalm   1006,3 94 -
04:25 15,4 14,4   Kalm   1006,3 94 -
04:31 15,4 14,4   Kalm   1006,3 94 -
04:35 15,4 14,4   Kalm   1006,3 94 -
04:41 15,4 14,4   Kalm   1006,3 94 -
04:45 15,4 14,4   Kalm   1006,3 94 -
04:51 15,4 14,4   Kalm   1006,0 94 -
04:55 15,3 14,3   Kalm   1006,0 94 -
05:01 15,3 14,3   Kalm   1005,6 94 -
05:05 15,3 14,3   Kalm   1006,0 94 -

Download your copy of this data-set  here

Our weather-data as stored at Weather Underground. Script ontwikkeld door Jim McMurry. Aangepast voor de template door Leuven-Template.eu

U vindt ons ook hier:

Het Weer Aktueel

UK Metoffice

European Weather Network

WeatherCloud

Weather Underground

Benelux Weer Netwerk

AWEKAS

Citizen Weather Observer Program (CWOP)

Apparatuur in gebruik:

Weerstation
Davis VP2

Weerprogramma
Meteobridge

Weercomputer
TP-Link MR3020

Davis VP2

Meteobridge

TP-Link MR3020